createdAt,value
2018-03-31T00:02:20.118Z,23.60
2018-03-31T00:04:48.127Z,24.77
2018-03-31T00:07:16.196Z,23.97
2018-03-31T00:09:44.293Z,23.47
2018-03-31T00:12:13.310Z,23.97
2018-03-31T00:14:41.446Z,24.60
2018-03-31T00:17:10.077Z,24.27
2018-03-31T00:19:38.188Z,22.70
2018-03-31T00:22:06.307Z,23.37
2018-03-31T00:24:34.363Z,22.27
2018-03-31T00:27:02.857Z,23.77
2018-03-31T00:29:31.070Z,23.03
2018-03-31T00:31:59.104Z,24.03
2018-03-31T00:34:27.134Z,22.17
2018-03-31T00:36:55.427Z,23.57
2018-03-31T00:39:23.547Z,22.80
2018-03-31T00:41:51.566Z,23.13
2018-03-31T00:44:19.752Z,23.23
2018-03-31T00:46:47.824Z,24.33
2018-03-31T00:49:16.030Z,22.53
2018-03-31T00:51:44.157Z,23.50
2018-03-31T00:54:12.374Z,23.80
2018-03-31T00:56:40.506Z,23.63
2018-03-31T00:59:08.708Z,22.77
2018-03-31T01:01:36.928Z,22.53
2018-03-31T01:04:05.151Z,23.13
2018-03-31T01:06:33.770Z,22.47
2018-03-31T01:09:01.910Z,22.10
2018-03-31T01:11:30.028Z,21.57
2018-03-31T01:13:58.113Z,22.37
2018-03-31T01:16:26.169Z,21.87
2018-03-31T01:18:54.394Z,21.53
2018-03-31T01:21:23.043Z,21.17
2018-03-31T01:23:51.230Z,22.03
2018-03-31T01:26:19.350Z,20.53
2018-03-31T01:28:47.883Z,23.07
2018-03-31T01:31:16.004Z,22.37
2018-03-31T01:33:44.139Z,22.27
2018-03-31T01:36:12.228Z,21.17
2018-03-31T01:38:40.450Z,20.47
2018-03-31T01:41:08.485Z,21.00
2018-03-31T01:43:36.685Z,18.73
2018-03-31T01:46:04.808Z,19.70
2018-03-31T01:48:33.012Z,18.10
2018-03-31T01:51:01.763Z,18.70
2018-03-31T01:53:29.888Z,18.63
2018-03-31T01:55:58.092Z,18.73
2018-03-31T01:58:26.232Z,20.07
2018-03-31T02:00:54.331Z,18.33
2018-03-31T02:03:22.552Z,19.60
2018-03-31T02:05:50.771Z,18.67
2018-03-31T02:08:18.872Z,18.67
2018-03-31T02:10:46.942Z,19.83
2018-03-31T02:13:15.018Z,20.10
2018-03-31T02:15:44.156Z,21.13
2018-03-31T02:18:12.892Z,19.17
2018-03-31T02:20:41.097Z,17.70
2018-03-31T02:23:09.300Z,18.63
2018-03-31T02:25:37.422Z,18.97
2018-03-31T02:28:05.655Z,17.70
2018-03-31T02:30:33.779Z,17.50
2018-03-31T02:33:01.919Z,19.13
2018-03-31T02:35:30.120Z,17.93
2018-03-31T02:37:58.348Z,19.17
2018-03-31T02:40:40.199Z,18.30
2018-03-31T02:43:08.428Z,18.77
2018-03-31T02:45:36.424Z,18.60
2018-03-31T02:48:04.489Z,18.70
2018-03-31T02:50:32.597Z,18.53
2018-03-31T02:53:00.695Z,17.77
2018-03-31T02:55:28.923Z,17.17
2018-03-31T02:57:57.041Z,17.97
2018-03-31T03:00:26.966Z,18.30
2018-03-31T03:02:55.007Z,19.13
2018-03-31T03:05:23.126Z,17.83
2018-03-31T03:07:51.154Z,19.50
2018-03-31T03:10:19.246Z,17.97
2018-03-31T03:12:47.473Z,18.87
2018-03-31T03:15:15.590Z,18.57
2018-03-31T03:17:43.389Z,18.83
2018-03-31T03:20:11.230Z,20.17
2018-03-31T03:22:39.021Z,16.87
2018-03-31T03:25:06.777Z,17.93
2018-03-31T03:27:35.382Z,19.33
2018-03-31T03:30:03.301Z,18.17
2018-03-31T03:32:31.139Z,19.23
2018-03-31T03:34:59.004Z,18.50
2018-03-31T03:37:26.671Z,19.13
2018-03-31T03:39:54.440Z,19.53
2018-03-31T03:42:22.213Z,18.97
2018-03-31T03:44:50.018Z,19.40
2018-03-31T03:47:17.932Z,17.23
2018-03-31T03:49:45.752Z,17.93
2018-03-31T03:52:13.472Z,17.73
2018-03-31T03:54:41.192Z,17.23
2018-03-31T03:57:09.111Z,16.77
2018-03-31T03:59:36.896Z,18.13
2018-03-31T04:02:04.745Z,18.20
2018-03-31T04:04:32.462Z,17.77
2018-03-31T04:07:00.288Z,16.93
2018-03-31T04:09:28.201Z,16.50
2018-03-31T04:11:56.021Z,16.07
2018-03-31T04:14:23.941Z,15.63
2018-03-31T04:16:51.653Z,16.23
2018-03-31T04:19:19.577Z,15.83
2018-03-31T04:21:47.495Z,19.57
2018-03-31T04:24:15.175Z,31.70
2018-03-31T04:26:42.933Z,16.83
2018-03-31T04:29:11.152Z,16.87
2018-03-31T04:31:38.895Z,18.40
2018-03-31T04:34:06.702Z,17.50
2018-03-31T04:36:34.509Z,17.87
2018-03-31T04:39:02.428Z,18.13
2018-03-31T04:41:30.231Z,17.50
2018-03-31T04:43:58.293Z,16.43
2018-03-31T04:46:26.083Z,17.07
2018-03-31T04:48:53.980Z,15.90
2018-03-31T04:51:21.704Z,17.20
2018-03-31T04:53:49.467Z,15.53
2018-03-31T04:56:17.358Z,16.07
2018-03-31T04:58:45.090Z,15.90
2018-03-31T05:01:12.908Z,14.70
2018-03-31T05:03:40.713Z,15.83
2018-03-31T05:06:08.532Z,15.63
2018-03-31T05:08:36.389Z,15.07
2018-03-31T05:11:04.274Z,15.43
2018-03-31T05:13:32.176Z,15.63
2018-03-31T05:16:00.108Z,15.73
2018-03-31T05:18:28.333Z,15.27
2018-03-31T05:20:56.251Z,16.50
2018-03-31T05:23:23.984Z,16.97
2018-03-31T05:25:51.888Z,20.17
2018-03-31T05:28:19.705Z,15.97
2018-03-31T05:30:48.395Z,15.50
2018-03-31T05:33:16.283Z,15.30
2018-03-31T05:35:43.968Z,15.60
2018-03-31T05:38:11.682Z,15.10
2018-03-31T05:40:39.513Z,15.93
2018-03-31T05:43:07.190Z,16.67
2018-03-31T05:45:34.970Z,16.23
2018-03-31T05:48:02.855Z,18.57
2018-03-31T05:50:30.878Z,17.50
2018-03-31T05:52:58.803Z,20.07
2018-03-31T05:55:26.525Z,17.37
2018-03-31T05:57:54.440Z,16.97
2018-03-31T06:00:22.193Z,18.70
2018-03-31T06:02:50.842Z,16.13
2018-03-31T06:05:18.598Z,15.63
2018-03-31T06:07:46.392Z,16.17
2018-03-31T06:10:14.146Z,15.97
2018-03-31T06:12:42.029Z,16.47
2018-03-31T06:15:09.777Z,17.93
2018-03-31T06:17:37.692Z,16.63
2018-03-31T06:20:06.280Z,16.33
2018-03-31T06:22:34.627Z,17.93
2018-03-31T06:25:02.447Z,17.40
2018-03-31T06:27:30.264Z,15.40
2018-03-31T06:29:57.982Z,16.53
2018-03-31T06:32:25.803Z,16.67
2018-03-31T06:34:53.619Z,16.37
2018-03-31T06:37:21.497Z,17.63
2018-03-31T06:39:49.360Z,16.43
2018-03-31T06:42:17.195Z,15.97
2018-03-31T06:44:45.096Z,18.37
2018-03-31T06:47:13.288Z,15.87
2018-03-31T06:49:41.182Z,15.03
2018-03-31T06:52:09.055Z,17.27
2018-03-31T06:54:36.789Z,15.27
2018-03-31T06:57:04.691Z,16.20
2018-03-31T06:59:32.410Z,15.57
2018-03-31T07:02:00.236Z,16.00
2018-03-31T07:04:28.060Z,14.80
2018-03-31T07:06:55.866Z,18.10
2018-03-31T07:09:23.702Z,19.27
2018-03-31T07:11:51.414Z,17.30
2018-03-31T07:14:19.320Z,23.23
2018-03-31T07:16:47.052Z,17.00
2018-03-31T07:19:14.726Z,18.80
2018-03-31T07:21:42.622Z,16.90
2018-03-31T07:24:10.498Z,16.60
2018-03-31T07:26:38.325Z,17.23
2018-03-31T07:29:06.079Z,15.40
2018-03-31T07:31:33.874Z,17.93
2018-03-31T07:34:01.570Z,17.80
2018-03-31T07:36:29.287Z,16.27
2018-03-31T07:38:56.991Z,17.00
2018-03-31T07:41:24.725Z,16.50
2018-03-31T07:43:52.546Z,15.63
2018-03-31T07:46:21.481Z,18.17
2018-03-31T07:48:49.288Z,15.47
2018-03-31T07:51:17.033Z,17.13
2018-03-31T07:53:44.923Z,14.87
2018-03-31T07:56:12.741Z,15.60
2018-03-31T07:58:40.433Z,16.67
2018-03-31T08:01:08.186Z,13.13
2018-03-31T08:03:36.869Z,11.90
2018-03-31T08:06:04.615Z,14.50
2018-03-31T08:08:32.438Z,12.27
2018-03-31T08:11:00.369Z,11.77
2018-03-31T08:13:28.118Z,11.60
2018-03-31T08:15:55.994Z,11.47
2018-03-31T08:18:23.732Z,10.47
2018-03-31T08:20:51.631Z,10.70
2018-03-31T08:23:21.133Z,10.70
2018-03-31T08:25:48.838Z,11.03
2018-03-31T08:28:16.695Z,11.00
2018-03-31T08:30:45.405Z,11.00
2018-03-31T08:33:13.195Z,10.67
2018-03-31T08:35:40.941Z,10.13
2018-03-31T08:38:08.624Z,10.83
2018-03-31T08:40:36.401Z,10.00
2018-03-31T08:43:04.251Z,10.27
2018-03-31T08:45:32.630Z,10.33
2018-03-31T08:48:00.356Z,11.10
2018-03-31T08:50:28.265Z,9.47
2018-03-31T08:52:56.098Z,10.63
2018-03-31T08:55:24.004Z,8.80
2018-03-31T08:57:51.733Z,9.30
2018-03-31T09:00:19.440Z,9.63
2018-03-31T09:02:47.262Z,10.43
2018-03-31T09:05:15.079Z,9.50
2018-03-31T09:07:42.793Z,9.53
2018-03-31T09:10:10.716Z,9.43
2018-03-31T09:12:38.935Z,9.00
2018-03-31T09:15:06.674Z,9.83
2018-03-31T09:17:34.406Z,9.03
2018-03-31T09:20:02.190Z,8.00
2018-03-31T09:22:30.109Z,8.80
2018-03-31T09:24:58.031Z,8.20
2018-03-31T09:27:25.875Z,8.77
2018-03-31T09:29:53.877Z,8.70
2018-03-31T09:32:21.787Z,7.57
2018-03-31T09:34:50.398Z,7.90
2018-03-31T09:37:18.228Z,11.20
2018-03-31T09:39:45.944Z,7.07
2018-03-31T09:42:13.681Z,8.13
2018-03-31T09:44:41.364Z,7.67
2018-03-31T09:47:09.202Z,7.50
2018-03-31T09:49:36.918Z,6.30
2018-03-31T09:52:04.842Z,7.10
2018-03-31T09:54:32.636Z,6.37
2018-03-31T09:57:00.477Z,6.23
2018-03-31T09:59:28.205Z,6.63
2018-03-31T10:01:56.535Z,7.37
2018-03-31T10:04:24.332Z,5.93
2018-03-31T10:06:52.060Z,6.13
2018-03-31T10:09:19.781Z,6.60
2018-03-31T10:11:47.515Z,6.17
2018-03-31T10:14:15.414Z,6.47
2018-03-31T10:16:43.230Z,7.67
2018-03-31T10:19:11.246Z,6.30
2018-03-31T10:21:38.964Z,7.93
2018-03-31T10:24:06.833Z,6.00
2018-03-31T10:26:34.704Z,6.63
2018-03-31T10:29:03.121Z,6.33
2018-03-31T10:31:30.840Z,6.00
2018-03-31T10:33:58.525Z,5.67
2018-03-31T10:36:26.745Z,5.90
2018-03-31T10:38:54.599Z,6.00
2018-03-31T10:41:22.424Z,5.23
2018-03-31T10:43:50.234Z,5.50
2018-03-31T10:46:18.136Z,6.13
2018-03-31T10:48:46.000Z,5.53
2018-03-31T10:51:13.822Z,6.10
2018-03-31T10:53:41.611Z,6.90
2018-03-31T10:56:10.318Z,6.53
2018-03-31T10:58:38.153Z,6.37
2018-03-31T11:01:06.072Z,5.87
2018-03-31T11:03:33.782Z,5.90
2018-03-31T11:06:01.442Z,5.17
2018-03-31T11:08:29.327Z,5.23
2018-03-31T11:10:57.044Z,6.27
2018-03-31T11:13:24.771Z,9.47
2018-03-31T11:15:53.187Z,6.47
2018-03-31T11:18:20.902Z,6.47
2018-03-31T11:20:48.633Z,5.27
2018-03-31T11:23:16.840Z,5.70
2018-03-31T11:25:44.758Z,5.33
2018-03-31T11:28:13.385Z,5.83
2018-03-31T11:30:41.168Z,5.97
2018-03-31T11:33:08.921Z,4.77
2018-03-31T11:35:36.672Z,4.80
2018-03-31T11:38:04.561Z,5.33
2018-03-31T11:40:33.999Z,5.00
2018-03-31T11:43:01.778Z,4.83
2018-03-31T11:45:29.718Z,5.50
2018-03-31T11:47:57.749Z,4.37
2018-03-31T11:50:25.468Z,5.63
2018-03-31T11:52:53.275Z,4.40
2018-03-31T11:55:21.161Z,6.13
2018-03-31T11:57:48.914Z,5.10
2018-03-31T12:00:16.832Z,5.07
2018-03-31T12:02:45.416Z,5.77
2018-03-31T12:05:13.272Z,5.17
2018-03-31T12:07:41.002Z,5.13
2018-03-31T12:10:08.828Z,6.23
2018-03-31T12:12:37.783Z,5.50
2018-03-31T12:15:05.548Z,5.57
2018-03-31T12:17:33.852Z,5.87
2018-03-31T12:20:01.691Z,5.43
2018-03-31T12:22:29.514Z,4.63
2018-03-31T12:24:57.427Z,5.43
2018-03-31T12:27:25.158Z,5.57
2018-03-31T12:29:52.970Z,5.23
2018-03-31T12:32:20.800Z,5.80
2018-03-31T12:34:49.251Z,5.07
2018-03-31T12:37:17.731Z,5.00
2018-03-31T12:39:45.553Z,5.07
2018-03-31T12:42:13.360Z,4.87
2018-03-31T12:44:41.252Z,4.97
2018-03-31T12:47:08.999Z,6.20
2018-03-31T12:49:36.821Z,5.30
2018-03-31T12:52:04.570Z,6.63
2018-03-31T12:54:32.294Z,5.07
2018-03-31T12:57:00.018Z,6.00
2018-03-31T12:59:27.898Z,6.03
2018-03-31T13:01:55.670Z,5.50
2018-03-31T13:04:24.390Z,6.03
2018-03-31T13:06:52.354Z,5.40
2018-03-31T13:09:20.069Z,5.30
2018-03-31T13:11:47.989Z,6.60
2018-03-31T13:14:15.879Z,5.80
2018-03-31T13:16:43.727Z,5.50
2018-03-31T13:19:11.649Z,6.17
2018-03-31T13:21:39.359Z,5.77
2018-03-31T13:24:07.182Z,4.93
2018-03-31T13:26:35.087Z,8.13
2018-03-31T13:29:02.880Z,6.10
2018-03-31T13:31:30.739Z,6.70
2018-03-31T13:33:58.540Z,6.50
2018-03-31T13:36:26.284Z,5.30
2018-03-31T13:38:54.195Z,5.17
2018-03-31T13:41:22.320Z,6.03
2018-03-31T13:43:50.208Z,6.77
2018-03-31T13:46:17.969Z,5.47
2018-03-31T13:48:45.873Z,6.37
2018-03-31T13:51:13.658Z,6.37
2018-03-31T13:53:41.516Z,5.90
2018-03-31T13:56:09.329Z,6.10
2018-03-31T13:58:37.150Z,7.00
2018-03-31T14:01:04.881Z,6.87
2018-03-31T14:03:32.684Z,6.13
2018-03-31T14:06:00.505Z,6.80
2018-03-31T14:08:28.422Z,6.43
2018-03-31T14:10:56.297Z,6.30
2018-03-31T14:13:24.884Z,6.80
2018-03-31T14:15:52.786Z,7.70
2018-03-31T14:18:20.476Z,7.53
2018-03-31T14:20:48.147Z,7.50
2018-03-31T14:23:15.947Z,7.13
2018-03-31T14:25:43.757Z,6.70
2018-03-31T14:28:11.674Z,7.30
2018-03-31T14:30:39.766Z,6.93
2018-03-31T14:33:07.599Z,7.90
2018-03-31T14:35:35.443Z,6.80
2018-03-31T14:38:03.329Z,6.17
2018-03-31T14:40:31.087Z,7.23
2018-03-31T14:42:58.886Z,7.37
2018-03-31T14:45:26.706Z,6.60
2018-03-31T14:47:54.495Z,7.73
2018-03-31T14:50:22.254Z,7.03
2018-03-31T14:52:50.164Z,6.73
2018-03-31T14:55:18.082Z,6.13
2018-03-31T14:57:45.903Z,5.50
2018-03-31T15:00:13.820Z,6.03
2018-03-31T15:02:41.652Z,7.03
2018-03-31T15:05:09.558Z,6.50
2018-03-31T15:07:37.357Z,6.97
2018-03-31T15:10:05.197Z,6.53
2018-03-31T15:12:32.927Z,6.43
2018-03-31T15:15:01.637Z,7.13
2018-03-31T15:17:29.469Z,6.90
2018-03-31T15:19:57.276Z,7.13
2018-03-31T15:22:25.114Z,7.70
2018-03-31T15:24:52.910Z,7.43
2018-03-31T15:27:20.749Z,7.17
2018-03-31T15:29:48.455Z,8.50
2018-03-31T15:32:16.365Z,7.70
2018-03-31T15:34:44.107Z,8.40
2018-03-31T15:37:11.911Z,7.47
2018-03-31T15:39:39.724Z,7.90
2018-03-31T15:42:08.222Z,7.87
2018-03-31T15:44:35.961Z,9.10
2018-03-31T15:47:03.783Z,8.33
2018-03-31T15:49:31.598Z,8.43
2018-03-31T15:51:59.318Z,7.63
2018-03-31T15:54:27.236Z,7.97
2018-03-31T15:56:55.074Z,8.77
2018-03-31T15:59:22.876Z,7.90
2018-03-31T16:01:50.616Z,7.00
2018-03-31T16:04:19.113Z,8.40
2018-03-31T16:06:46.786Z,7.97
2018-03-31T16:09:14.653Z,9.17
2018-03-31T16:11:42.568Z,8.87
2018-03-31T16:14:10.460Z,8.60
2018-03-31T16:16:38.309Z,7.87
2018-03-31T16:19:06.196Z,9.57
2018-03-31T16:21:34.045Z,10.03
2018-03-31T16:24:01.864Z,9.33
2018-03-31T16:26:29.782Z,9.30
2018-03-31T16:28:57.523Z,8.30
2018-03-31T16:31:25.322Z,9.27
2018-03-31T16:33:53.238Z,9.60
2018-03-31T16:36:20.958Z,8.27
2018-03-31T16:38:48.878Z,8.63
2018-03-31T16:41:16.595Z,10.07
2018-03-31T16:43:44.421Z,9.70
2018-03-31T16:46:12.154Z,9.97
2018-03-31T16:48:40.054Z,9.77
2018-03-31T16:51:08.572Z,7.97
2018-03-31T16:53:36.493Z,9.23
2018-03-31T16:56:04.271Z,8.60
2018-03-31T16:58:32.152Z,8.37
2018-03-31T17:01:00.048Z,9.00
2018-03-31T17:03:27.769Z,7.80
2018-03-31T17:05:55.539Z,8.50
2018-03-31T17:08:23.318Z,9.13
2018-03-31T17:10:51.075Z,8.40
2018-03-31T17:13:18.944Z,8.33
2018-03-31T17:15:46.786Z,8.40
2018-03-31T17:18:14.493Z,8.07
2018-03-31T17:20:42.291Z,8.57
2018-03-31T17:23:10.019Z,8.57
2018-03-31T17:25:37.733Z,8.90
2018-03-31T17:28:05.653Z,7.53
2018-03-31T17:33:07.212Z,8.30
2018-03-31T17:35:34.946Z,8.10
2018-03-31T17:38:02.622Z,8.43
2018-03-31T17:40:30.467Z,9.37
2018-03-31T17:42:58.314Z,7.90
2018-03-31T17:45:26.207Z,8.60
2018-03-31T17:47:54.825Z,8.83
2018-03-31T17:50:22.646Z,9.10
2018-03-31T17:52:51.067Z,9.87
2018-03-31T17:55:18.906Z,8.60
2018-03-31T17:57:46.714Z,9.27
2018-03-31T18:00:14.440Z,10.60
2018-03-31T18:02:42.340Z,10.40
2018-03-31T18:05:10.259Z,10.90
2018-03-31T18:07:37.991Z,10.00
2018-03-31T18:10:05.796Z,10.10
2018-03-31T18:12:33.724Z,10.47
2018-03-31T18:15:01.914Z,10.50
2018-03-31T18:17:29.756Z,10.63
2018-03-31T18:19:57.568Z,10.20
2018-03-31T18:22:25.391Z,10.27
2018-03-31T18:24:53.111Z,10.37
2018-03-31T18:27:20.839Z,9.83
2018-03-31T18:29:48.642Z,11.80
2018-03-31T18:32:16.374Z,10.40
2018-03-31T18:34:44.083Z,9.93
2018-03-31T18:37:11.902Z,10.43
2018-03-31T18:39:39.734Z,11.27
2018-03-31T18:42:07.742Z,12.33
2018-03-31T18:44:35.470Z,12.47
2018-03-31T18:47:03.255Z,14.13
2018-03-31T18:49:31.102Z,12.33
2018-03-31T18:51:59.228Z,11.83
2018-03-31T18:54:27.038Z,13.27
2018-03-31T18:56:54.908Z,12.57
2018-03-31T18:59:22.592Z,11.87
2018-03-31T19:01:50.357Z,14.33
2018-03-31T19:04:18.128Z,15.20
2018-03-31T19:06:45.932Z,12.37
2018-03-31T19:09:13.730Z,13.03
2018-03-31T19:11:42.088Z,12.90
2018-03-31T19:14:09.836Z,12.67
2018-03-31T19:16:43.030Z,12.47
2018-03-31T19:19:10.945Z,12.47
2018-03-31T19:21:38.839Z,12.33
2018-03-31T19:24:06.682Z,11.37
2018-03-31T19:26:34.396Z,13.60
2018-03-31T19:29:02.218Z,13.50
2018-03-31T19:31:30.068Z,14.07
2018-03-31T19:33:57.888Z,12.87
2018-03-31T19:36:25.607Z,12.37
2018-03-31T19:38:53.299Z,13.87
2018-03-31T19:41:21.919Z,12.17
2018-03-31T19:43:49.649Z,12.30
2018-03-31T19:46:17.431Z,11.77
2018-03-31T19:48:45.247Z,12.83
2018-03-31T19:51:13.260Z,12.77
2018-03-31T19:53:40.980Z,12.07
2018-03-31T19:56:08.825Z,12.93
2018-03-31T19:58:36.645Z,13.10
2018-03-31T20:01:04.463Z,12.13
2018-03-31T20:03:32.286Z,11.10
2018-03-31T20:05:59.964Z,13.07
2018-03-31T20:08:27.780Z,12.07
2018-03-31T20:10:55.640Z,12.43
2018-03-31T20:13:23.463Z,12.60
2018-03-31T20:15:51.236Z,11.07
2018-03-31T20:18:19.096Z,11.57
2018-03-31T20:20:48.544Z,11.23
2018-03-31T20:23:16.340Z,11.73
2018-03-31T20:25:44.071Z,11.80
2018-03-31T20:28:11.737Z,13.17
2018-03-31T20:30:39.467Z,11.70
2018-03-31T20:33:07.153Z,11.73
2018-03-31T20:35:35.028Z,12.30
2018-03-31T20:38:02.764Z,11.73
2018-03-31T20:40:30.474Z,12.00
2018-03-31T20:42:58.366Z,11.37
2018-03-31T20:45:26.203Z,11.57
2018-03-31T20:47:54.127Z,10.73
2018-03-31T20:50:21.963Z,11.77
2018-03-31T20:52:49.861Z,10.73
2018-03-31T20:55:17.680Z,11.63
2018-03-31T20:57:45.585Z,10.70
2018-03-31T21:00:13.317Z,12.47
2018-03-31T21:02:41.138Z,10.83
2018-03-31T21:05:08.965Z,10.83
2018-03-31T21:07:36.643Z,12.90
2018-03-31T21:10:04.492Z,11.10
2018-03-31T21:12:32.214Z,10.43
2018-03-31T21:15:00.008Z,11.40
2018-03-31T21:17:27.756Z,16.17
2018-03-31T21:19:55.464Z,40.03
2018-03-31T21:22:23.191Z,12.43
2018-03-31T21:24:50.977Z,11.20
2018-03-31T21:27:18.828Z,11.57
2018-03-31T21:29:46.567Z,12.97
2018-03-31T21:32:14.332Z,11.23
2018-03-31T21:34:42.069Z,11.10
2018-03-31T21:37:09.865Z,12.27
2018-03-31T21:39:38.220Z,12.23
2018-03-31T21:42:06.134Z,11.93
2018-03-31T21:44:33.872Z,12.07
2018-03-31T21:47:01.873Z,12.20
2018-03-31T21:49:29.770Z,13.20
2018-03-31T21:51:57.610Z,11.70
2018-03-31T21:54:26.132Z,12.40
2018-03-31T21:56:54.151Z,11.27
2018-03-31T21:59:21.847Z,10.50
2018-03-31T22:01:49.688Z,10.50
2018-03-31T22:04:17.507Z,11.03
2018-03-31T22:06:46.228Z,10.73
2018-03-31T22:09:14.650Z,10.50
2018-03-31T22:11:42.470Z,10.00
2018-03-31T22:14:15.778Z,11.20
2018-03-31T22:16:43.532Z,9.97
2018-03-31T22:19:12.950Z,10.97
2018-03-31T22:21:40.771Z,9.27
2018-03-31T22:24:08.501Z,11.30
2018-03-31T22:26:36.410Z,10.90
2018-03-31T22:29:04.131Z,10.57
2018-03-31T22:31:32.047Z,10.80
2018-03-31T22:33:59.882Z,11.80
2018-03-31T22:36:27.682Z,11.90
2018-03-31T22:38:55.499Z,10.80
2018-03-31T22:41:23.320Z,9.97
2018-03-31T22:43:51.240Z,10.00
2018-03-31T22:46:19.032Z,9.80
2018-03-31T22:48:46.874Z,11.07
2018-03-31T22:51:14.793Z,11.13
2018-03-31T22:53:42.582Z,9.87
2018-03-31T22:56:10.433Z,9.23
2018-03-31T22:58:38.314Z,10.80
2018-03-31T23:01:06.171Z,10.93
2018-03-31T23:03:35.598Z,9.70
2018-03-31T23:06:03.816Z,9.10
2018-03-31T23:08:32.035Z,8.97
2018-03-31T23:11:00.006Z,10.03
2018-03-31T23:13:28.075Z,8.50
2018-03-31T23:15:56.205Z,8.33
2018-03-31T23:18:24.337Z,10.00
2018-03-31T23:20:52.435Z,8.20
2018-03-31T23:23:20.460Z,11.47
2018-03-31T23:25:48.573Z,9.07
2018-03-31T23:28:16.702Z,10.47
2018-03-31T23:30:44.914Z,12.03
2018-03-31T23:33:13.131Z,10.83
2018-03-31T23:35:41.356Z,10.43
2018-03-31T23:38:09.270Z,12.13
2018-03-31T23:40:36.989Z,11.07
2018-03-31T23:43:04.700Z,10.90
2018-03-31T23:45:32.451Z,11.80
2018-03-31T23:48:00.344Z,12.07
2018-03-31T23:50:28.166Z,11.63
2018-03-31T23:52:55.913Z,12.43
2018-03-31T23:55:23.808Z,11.30
2018-03-31T23:57:51.618Z,12.07
